DAUG/GHA METAR and TAF weather

Enter ICAO airport designator
Station Type Date Time Source
DAUG METAR 2022/01/26 13:00 UTC NOAA

DAUG 261300Z 11007KT CAVOK 13/M02 Q1030


Station Type Date Time Source
DAUG Decoded METAR 2022/01/26 13:00 UTC NOAA

Ghardaia, Algeria (DAUG) 32-23N 003-49E 450M
Jan 26, 2022 - 08:00 AM EST / 2022.01.26 1300 UTC
Wind: from the ESE (110 degrees) at 8 MPH (7 KT):0
Visibility: greater than 7 mile(s):0
Temperature: 55 F (13 C)
Dew Point: 28 F (-2 C)
Relative Humidity: 35%
Pressure (altimeter): 30.42 in. Hg (1030 hPa)
ob: DAUG 261300Z 11007KT CAVOK 13/M02 Q1030
cycle: 13

Station Type Date Time Source
DAUG TAF 2022/01/26 12:31 UTC NOAA

TAF DAUG 261100Z 2612/2712 10012KT CAVOK

Example: see airport list